createdAt,value
2023-04-19T00:00:10.530Z,7.10
2023-04-19T00:04:18.786Z,7.40
2023-04-19T00:08:07.952Z,6.90
2023-04-19T00:11:39.026Z,7.50
2023-04-19T00:15:21.378Z,3.90
2023-04-19T00:18:55.094Z,5.60
2023-04-19T00:22:20.420Z,5.70
2023-04-19T00:26:09.318Z,4.90
2023-04-19T00:29:47.048Z,5.90
2023-04-19T00:33:36.035Z,3.40
2023-04-19T00:37:13.949Z,3.00
2023-04-19T00:40:45.832Z,4.10
2023-04-19T00:44:33.805Z,2.50
2023-04-19T00:48:22.795Z,3.90
2023-04-19T00:52:04.335Z,2.70
2023-04-19T00:55:33.493Z,3.30
2023-04-19T00:59:05.576Z,2.60
2023-04-19T01:02:40.235Z,2.90
2023-04-19T01:06:16.272Z,3.50
2023-04-19T01:09:36.808Z,2.70
2023-04-19T01:13:09.667Z,2.30
2023-04-19T01:16:42.854Z,4.00
2023-04-19T01:20:04.840Z,3.20
2023-04-19T01:23:45.729Z,2.60
2023-04-19T01:27:34.780Z,3.10
2023-04-19T01:31:23.775Z,3.10
2023-04-19T01:35:12.606Z,3.70
2023-04-19T01:39:01.423Z,2.60
2023-04-19T01:42:23.488Z,2.20
2023-04-19T01:46:05.003Z,3.20
2023-04-19T01:49:43.610Z,3.10
2023-04-19T01:53:18.107Z,4.00
2023-04-19T01:57:07.253Z,3.70
2023-04-19T02:00:30.846Z,2.70
2023-04-19T02:04:13.336Z,1.60
2023-04-19T02:08:02.319Z,2.30
2023-04-19T02:11:26.133Z,2.20
2023-04-19T02:15:14.922Z,1.90
2023-04-19T02:18:41.209Z,2.80
2023-04-19T02:22:05.334Z,2.60
2023-04-19T02:25:29.023Z,2.30
2023-04-19T02:29:10.687Z,2.10
2023-04-19T02:32:35.664Z,1.90
2023-04-19T02:35:40.728Z,3.10
2023-04-19T02:39:18.164Z,3.20
2023-04-19T02:42:42.952Z,3.10
2023-04-19T02:46:22.087Z,1.70
2023-04-19T02:50:04.041Z,1.80
2023-04-19T02:53:36.632Z,2.10
2023-04-19T02:57:25.571Z,2.70
2023-04-19T03:00:53.926Z,3.10
2023-04-19T03:04:34.697Z,3.00
2023-04-19T03:08:23.564Z,3.30
2023-04-19T03:12:12.446Z,2.20
2023-04-19T03:15:52.480Z,2.80
2023-04-19T03:19:12.261Z,2.00
2023-04-19T03:22:49.740Z,2.90
2023-04-19T03:26:28.767Z,3.30
2023-04-19T03:30:09.232Z,2.90
2023-04-19T03:33:46.936Z,3.10
2023-04-19T03:37:35.947Z,2.60
2023-04-19T03:40:59.010Z,3.20
2023-04-19T03:44:47.918Z,3.20
2023-04-19T03:47:58.810Z,3.20
2023-04-19T03:51:49.361Z,2.20
2023-04-19T03:55:28.374Z,3.70
2023-04-19T03:58:49.372Z,2.80
2023-04-19T04:02:28.314Z,3.10
2023-04-19T04:06:08.610Z,3.00
2023-04-19T04:09:57.686Z,3.40
2023-04-19T04:13:39.423Z,3.60
2023-04-19T04:17:22.268Z,3.90
2023-04-19T04:21:03.978Z,4.40
2023-04-19T04:24:45.585Z,2.90
2023-04-19T04:28:43.335Z,4.40
2023-04-19T04:32:03.960Z,3.30
2023-04-19T04:35:52.955Z,3.00
2023-04-19T04:39:40.759Z,2.10
2023-04-19T04:43:29.992Z,4.00
2023-04-19T04:47:18.937Z,4.00
2023-04-19T04:50:47.999Z,3.10
2023-04-19T04:54:09.405Z,2.70
2023-04-19T04:57:58.613Z,3.60
2023-04-19T05:01:29.477Z,2.30
2023-04-19T05:05:11.051Z,2.80
2023-04-19T05:08:59.954Z,3.00
2023-04-19T05:12:40.155Z,3.90
2023-04-19T05:16:29.492Z,2.80
2023-04-19T05:20:18.225Z,3.80
2023-04-19T05:23:52.615Z,5.00
2023-04-19T05:27:25.899Z,4.60
2023-04-19T05:31:14.917Z,4.60
2023-04-19T05:34:59.421Z,5.30
2023-04-19T05:38:48.309Z,4.60
2023-04-19T05:42:37.294Z,4.10
2023-04-19T05:46:14.931Z,5.40
2023-04-19T05:49:43.238Z,3.50
2023-04-19T05:53:26.310Z,4.20
2023-04-19T05:56:44.941Z,4.00
2023-04-19T06:00:32.883Z,5.30
2023-04-19T06:03:57.632Z,4.40
2023-04-19T06:07:42.871Z,4.50
2023-04-19T06:11:19.883Z,4.80
2023-04-19T06:14:40.957Z,3.20
2023-04-19T06:18:10.096Z,5.40
2023-04-19T06:21:35.216Z,5.30
2023-04-19T06:25:27.174Z,5.60
2023-04-19T06:28:58.703Z,5.50
2023-04-19T06:32:40.428Z,3.70
2023-04-19T06:36:10.681Z,6.60
2023-04-19T06:39:59.436Z,4.60
2023-04-19T06:43:48.361Z,3.80
2023-04-19T06:47:37.277Z,4.80
2023-04-19T06:51:11.856Z,6.10
2023-04-19T06:54:59.562Z,4.70
2023-04-19T06:58:26.651Z,6.30
2023-04-19T07:02:07.253Z,3.30
2023-04-19T07:05:57.061Z,4.60
2023-04-19T07:09:38.791Z,2.80
2023-04-19T07:12:59.341Z,7.00
2023-04-19T07:16:14.659Z,7.20
2023-04-19T07:20:02.067Z,6.30
2023-04-19T07:23:51.134Z,3.70
2023-04-19T07:27:38.753Z,5.30
2023-04-19T07:31:27.652Z,4.70
2023-04-19T07:35:07.680Z,6.00
2023-04-19T07:38:47.402Z,9.40
2023-04-19T07:42:07.516Z,6.70
2023-04-19T07:45:56.458Z,4.40
2023-04-19T07:49:37.118Z,7.40
2023-04-19T07:53:09.688Z,6.70
2023-04-19T07:56:58.600Z,7.70
2023-04-19T08:00:47.762Z,7.40
2023-04-19T08:04:29.625Z,8.40
2023-04-19T08:08:10.274Z,9.20
2023-04-19T08:11:49.646Z,9.80
2023-04-19T08:19:23.541Z,8.50
2023-04-19T08:23:07.506Z,5.50
2023-04-19T08:26:41.899Z,4.00
2023-04-19T08:30:22.954Z,7.80
2023-04-19T08:34:11.224Z,5.90
2023-04-19T08:38:01.638Z,4.60
2023-04-19T08:41:52.818Z,6.90
2023-04-19T08:45:38.482Z,5.70
2023-04-19T08:49:03.433Z,3.80
2023-04-19T08:52:58.635Z,4.50
2023-04-19T08:56:35.718Z,4.50
2023-04-19T09:00:13.435Z,4.30
2023-04-19T09:04:16.891Z,4.30
2023-04-19T09:08:12.048Z,6.10
2023-04-19T09:11:48.734Z,7.20
2023-04-19T09:15:37.590Z,5.10
2023-04-19T09:19:38.176Z,6.30
2023-04-19T09:23:17.409Z,5.70
2023-04-19T09:26:39.642Z,4.10
2023-04-19T09:30:33.889Z,5.90
2023-04-19T09:34:36.213Z,6.10
2023-04-19T09:38:08.219Z,5.40
2023-04-19T09:42:05.991Z,3.90
2023-04-19T09:45:51.515Z,5.20
2023-04-19T09:49:25.204Z,5.00
2023-04-19T09:53:25.679Z,4.20
2023-04-19T09:57:01.338Z,5.70
2023-04-19T10:00:53.200Z,6.10
2023-04-19T10:05:03.264Z,5.80
2023-04-19T10:08:50.839Z,4.90
2023-04-19T10:12:52.274Z,6.50
2023-04-19T10:16:22.487Z,6.80
2023-04-19T10:20:11.418Z,6.50
2023-04-19T10:24:00.319Z,7.00
2023-04-19T10:27:50.942Z,4.80
2023-04-19T10:31:28.584Z,7.30
2023-04-19T10:35:07.788Z,5.90
2023-04-19T10:39:02.910Z,8.60
2023-04-19T10:42:59.847Z,8.00
2023-04-19T10:46:41.115Z,8.10
2023-04-19T10:50:06.257Z,4.70
2023-04-19T10:53:53.393Z,5.60
2023-04-19T10:57:38.139Z,7.60
2023-04-19T11:01:04.907Z,8.70
2023-04-19T11:04:46.792Z,6.50
2023-04-19T11:08:22.154Z,9.50
2023-04-19T11:11:39.568Z,5.10
2023-04-19T11:15:22.729Z,9.60
2023-04-19T11:18:59.244Z,8.40
2023-04-19T11:22:08.195Z,10.40
2023-04-19T11:25:08.590Z,11.30
2023-04-19T11:27:52.217Z,10.80
2023-04-19T11:30:42.346Z,12.00
2023-04-19T11:34:20.037Z,9.30
2023-04-19T11:37:18.882Z,10.70
2023-04-19T11:40:16.292Z,10.40
2023-04-19T11:43:37.421Z,6.20
2023-04-19T11:47:09.307Z,8.20
2023-04-19T11:50:38.405Z,9.60
2023-04-19T11:54:24.193Z,6.50
2023-04-19T11:57:47.055Z,9.30
2023-04-19T12:01:36.183Z,10.10
2023-04-19T12:05:26.431Z,10.00
2023-04-19T12:09:11.236Z,10.70
2023-04-19T12:12:07.494Z,9.50
2023-04-19T12:15:18.497Z,10.20
2023-04-19T12:19:25.859Z,10.00
2023-04-19T12:22:53.670Z,11.00
2023-04-19T12:26:25.244Z,11.90
2023-04-19T12:29:29.207Z,9.80
2023-04-19T12:33:18.415Z,10.60
2023-04-19T12:36:15.643Z,12.30
2023-04-19T12:39:38.606Z,10.80
2023-04-19T12:43:02.117Z,11.40
2023-04-19T12:46:51.283Z,8.60
2023-04-19T12:50:36.831Z,12.60
2023-04-19T12:54:12.103Z,11.10
2023-04-19T12:58:01.310Z,8.20
2023-04-19T13:01:42.606Z,11.00
2023-04-19T13:05:14.431Z,11.30
2023-04-19T13:09:00.933Z,8.40
2023-04-19T13:12:44.425Z,10.80
2023-04-19T13:16:13.395Z,12.20
2023-04-19T13:20:02.437Z,12.70
2023-04-19T13:23:51.550Z,13.20
2023-04-19T13:27:40.154Z,10.20
2023-04-19T13:31:29.680Z,10.20
2023-04-19T13:35:11.986Z,12.30
2023-04-19T13:39:01.176Z,11.20
2023-04-19T13:42:50.594Z,10.30
2023-04-19T13:46:32.639Z,10.90
2023-04-19T13:50:21.618Z,9.90
2023-04-19T13:53:59.695Z,10.30
2023-04-19T13:57:40.235Z,10.00
2023-04-19T14:01:33.507Z,11.50
2023-04-19T14:05:12.600Z,11.10
2023-04-19T14:08:51.202Z,12.00
2023-04-19T14:12:41.340Z,12.20
2023-04-19T14:16:29.087Z,11.30
2023-04-19T14:20:15.166Z,11.60
2023-04-19T14:24:04.358Z,11.70
2023-04-19T14:27:53.681Z,11.90
2023-04-19T14:31:41.474Z,12.00
2023-04-19T14:35:19.919Z,12.50
2023-04-19T14:39:02.992Z,13.20
2023-04-19T14:42:52.073Z,13.60
2023-04-19T14:46:34.568Z,13.30
2023-04-19T14:50:05.852Z,12.30
2023-04-19T14:53:47.814Z,15.90
2023-04-19T14:57:20.826Z,16.40
2023-04-19T15:01:10.393Z,17.00
2023-04-19T15:05:00.797Z,17.60
2023-04-19T15:08:40.909Z,15.20
2023-04-19T15:12:22.802Z,16.50
2023-04-19T15:16:11.955Z,16.30
2023-04-19T15:20:23.962Z,17.50
2023-04-19T15:24:18.933Z,17.40
2023-04-19T15:28:06.964Z,16.10
2023-04-19T15:31:58.281Z,16.60
2023-04-19T15:35:47.453Z,18.90
2023-04-19T15:39:36.906Z,20.20
2023-04-19T15:43:19.474Z,22.30
2023-04-19T15:47:01.517Z,24.20
2023-04-19T15:50:44.372Z,25.80
2023-04-19T15:54:33.902Z,22.10
2023-04-19T15:57:56.976Z,20.50
2023-04-19T16:01:41.298Z,19.10
2023-04-19T16:05:20.878Z,18.10
2023-04-19T16:08:43.728Z,22.10
2023-04-19T16:12:26.951Z,24.30
2023-04-19T16:16:00.768Z,20.70
2023-04-19T16:19:50.465Z,25.10
2023-04-19T16:23:16.044Z,22.10
2023-04-19T16:27:03.777Z,17.70
2023-04-19T16:30:32.332Z,17.20
2023-04-19T16:34:21.983Z,15.20
2023-04-19T16:38:10.277Z,15.90
2023-04-19T16:41:59.784Z,15.90
2023-04-19T16:45:52.601Z,15.40
2023-04-19T16:49:47.844Z,16.00
2023-04-19T16:53:19.428Z,16.10
2023-04-19T16:57:09.040Z,16.10
2023-04-19T17:00:50.823Z,16.90
2023-04-19T17:04:32.658Z,18.90
2023-04-19T17:08:06.629Z,20.60
2023-04-19T17:11:48.288Z,20.20
2023-04-19T17:15:20.335Z,21.80
2023-04-19T17:18:59.919Z,21.00
2023-04-19T17:22:49.501Z,20.50
2023-04-19T17:26:24.160Z,20.60
2023-04-19T17:30:03.290Z,21.30
2023-04-19T17:33:18.922Z,18.30
2023-04-19T17:37:07.786Z,18.70
2023-04-19T17:40:42.616Z,18.50
2023-04-19T17:44:24.037Z,19.10
2023-04-19T17:48:06.463Z,18.20
2023-04-19T17:51:54.003Z,19.80
2023-04-19T17:55:35.544Z,18.40
2023-04-19T17:59:23.374Z,19.60
2023-04-19T18:03:04.932Z,18.80
2023-04-19T18:06:51.351Z,18.50
2023-04-19T18:10:26.436Z,19.50
2023-04-19T18:14:07.681Z,20.00
2023-04-19T18:17:33.100Z,19.10
2023-04-19T18:21:22.933Z,19.30
2023-04-19T18:25:12.459Z,19.40
2023-04-19T18:29:04.435Z,21.00
2023-04-19T18:32:57.244Z,21.90
2023-04-19T18:36:46.459Z,23.10
2023-04-19T18:40:15.508Z,25.10
2023-04-19T18:47:45.816Z,51.80
2023-04-19T18:51:34.380Z,55.10
2023-04-19T18:55:24.785Z,113.40
2023-04-19T18:59:16.651Z,48.80
2023-04-19T19:03:19.286Z,38.50
2023-04-19T19:07:27.788Z,43.00
2023-04-19T19:11:51.254Z,82.50
2023-04-19T19:15:30.530Z,32.50
2023-04-19T19:19:02.450Z,61.70
2023-04-19T19:22:54.818Z,40.20
2023-04-19T19:26:44.883Z,31.20
2023-04-19T19:30:28.205Z,31.20
2023-04-19T19:34:27.166Z,32.50
2023-04-19T19:38:18.791Z,33.60
2023-04-19T19:42:08.555Z,35.70
2023-04-19T19:45:58.186Z,39.50
2023-04-19T19:49:55.243Z,45.80
2023-04-19T19:53:50.608Z,49.30
2023-04-19T20:01:32.907Z,43.00
2023-04-19T20:09:29.204Z,40.10
2023-04-19T20:13:19.527Z,39.20
2023-04-19T20:17:09.016Z,31.80
2023-04-19T20:20:59.471Z,34.20
2023-04-19T20:28:40.960Z,38.10
2023-04-19T20:32:31.299Z,33.80
2023-04-19T20:44:51.266Z,32.60
2023-04-19T20:48:41.146Z,31.00
2023-04-19T20:52:35.758Z,30.30
2023-04-19T21:01:04.413Z,27.40
2023-04-19T21:04:33.223Z,25.30
2023-04-19T21:08:43.844Z,28.30
2023-04-19T21:12:28.948Z,27.70
2023-04-19T21:16:19.471Z,27.10
2023-04-19T21:20:25.151Z,27.30
2023-04-19T21:24:29.017Z,30.30
2023-04-19T21:28:32.960Z,31.50
2023-04-19T21:32:47.032Z,34.70
2023-04-19T21:36:29.980Z,35.10
2023-04-19T21:40:04.587Z,32.20
2023-04-19T21:43:53.711Z,30.40
2023-04-19T21:47:39.510Z,27.50
2023-04-19T21:51:21.712Z,29.40
2023-04-19T21:54:59.696Z,27.80
2023-04-19T22:02:59.903Z,29.30
2023-04-19T22:06:48.944Z,27.70
2023-04-19T22:10:19.438Z,27.90
2023-04-19T22:14:08.354Z,27.80
2023-04-19T22:18:00.168Z,31.70
2023-04-19T22:22:03.217Z,27.90
2023-04-19T22:26:26.936Z,24.50
2023-04-19T22:34:40.450Z,27.10
2023-04-19T22:50:12.923Z,26.20
2023-04-19T22:59:05.509Z,25.90
2023-04-19T23:03:34.646Z,26.80
2023-04-19T23:07:43.727Z,25.90
2023-04-19T23:11:38.781Z,26.90
2023-04-19T23:14:55.280Z,27.80
2023-04-19T23:18:55.249Z,27.90
2023-04-19T23:22:44.142Z,26.10
2023-04-19T23:26:21.698Z,26.30
2023-04-19T23:34:26.117Z,28.30
2023-04-19T23:43:08.167Z,27.30
2023-04-19T23:50:45.089Z,29.90
2023-04-19T23:54:34.035Z,26.50
2023-04-19T23:58:13.927Z,28.00
